This is the latest recevied weather packets stored in our database for station/object AD4CG. If no packets are shown the sender has not sent any weather packets the latest 10 day(s).
| Time | Temp. | Humidity | Pressure | Rain* | Wind** | Luminosity | Snow |
|---|---|---|---|---|---|---|---|
| 1777672281 | 13.33° C | 100% | 1013.9 hPa | 0 mm | - | - | - |
| 1777671663 | 12.78° C | 100% | 1014.2 hPa | 0 mm | - | - | - |
| 1777670131 | 12.78° C | 100% | 1014.2 hPa | 0 mm | - | - | - |
| 1777669512 | 12.78° C | 100% | 1014.2 hPa | 0 mm | - | - | - |
| 1777665642 | 11.67° C | 100% | 1014.6 hPa | 0 mm | - | - | - |
| 1777664391 | 11.67° C | 100% | 1015.2 hPa | 0 mm | - | - | - |
| 1777662181 | 11.67° C | 100% | 1015.2 hPa | 0 mm | - | - | - |
| 1777659051 | 12.22° C | 86% | 1016.3 hPa | 0 mm | - | - | - |
| 1777656855 | 12.22° C | 78% | 1016.3 hPa | 0 mm | - | - | - |
| 1777655915 | 12.22° C | 79% | 1016.3 hPa | 0 mm | - | - | - |
| 1777655604 | 12.22° C | 77% | 1016.3 hPa | 0 mm | - | - | - |
| 1777655291 | 12.22° C | 77% | 1016.3 hPa | 0 mm | - | - | - |
| 1777653727 | 12.22° C | 74% | 1016.3 hPa | 0 mm | - | - | - |
| 1777648387 | 11.11° C | 90% | 1016.9 hPa | 0 mm | - | - | - |
| 1777647764 | 11.11° C | 96% | 1016.9 hPa | 0 mm | - | - | - |
| 1777647451 | 11.11° C | 96% | 1016.9 hPa | 0 mm | - | - | - |
| 1777645562 | 10.56° C | 100% | 1016.9 hPa | 0.25 mm | - | - | - |
| 1777644613 | 10° C | 100% | 1016.6 hPa | 0.25 mm | - | - | - |
| 1777641816 | 10° C | 99% | 1017.9 hPa | 0 mm | - | - | - |
| 1777640260 | 11.11° C | 86% | 1016.9 hPa | 0 mm | - | - | - |
| 1777639642 | 11.11° C | 83% | 1016.3 hPa | 0 mm | - | - | - |
| 1777639325 | 11.11° C | 80% | 1015.9 hPa | 0 mm | - | - | - |
| 1777638387 | 11.67° C | 68% | 1016.3 hPa | 0 mm | - | - | - |
| 1777636198 | 11.67° C | 73% | 1015.9 hPa | 0 mm | - | - | - |
| 1777635263 | 11.67° C | 74% | 1015.9 hPa | 0 mm | - | - | - |
* Rain latest hour (hover to see other rain measurements)
** Current wind speed in m/s (hover to see current wind gust speed)